This demonstration page uses our WeatherBlox Daily Observations layout. Learn more.

41.55636, -103.73856

Hourly Observations for January 21, 2019

Temp ( °F °C ) Dew Point ( °F °C ) Humidity (%) Winds ( mph kmh ) Pressure ( in mb ) Visibility ( mi km ) Precip ( " mm )
12:58 am 00:58 Mostly Cloudy 37 2.5 27 -2.8 68 68 S 15 24 29.93 1013 10 16.0934 N/A
1:58 am 01:58 Mostly Cloudy 37 2.9 28 -2.5 68 68 SSW 18 30 29.91 1013 10 16.0934 N/A
2:58 am 02:58 Partly Cloudy 36 2.4 27 -2.8 69 69 S 21 33 29.89 1012 10 16.0934 N/A
3:58 am 03:58 Mostly Clear 32 0.2 26 -3.6 76 76 S 15 24 29.84 1010 10 16.0934 N/A
4:58 am 04:58 Mostly Cloudy 33 0.3 26 -3.4 76 76 S 13 20 29.82 1010 10 16.0934 N/A
5:58 am 05:58 Mostly Clear 30 -1.2 25 -3.8 83 83 S 10 17 29.82 1010 10 16.0934 N/A
6:58 am 06:58 Clear 29 -1.5 25 -3.8 85 85 S 13 20 29.78 1009 10 16.0934 N/A
7:58 am 07:58 Clear 28 -2.2 25 -4.1 87 87 SSW 15 24 29.74 1007 10 16.0934 N/A
8:58 am 08:58 Clear 29 -1.9 25 -4.1 85 85 SSW 15 24 29.7 1006 10 16.0934 N/A
9:58 am 09:58 Clear 31 -0.5 25 -3.9 78 78 SW 17 28 29.67 1005 10 16.0934 N/A
10:58 am 10:58 Mostly Cloudy 32 -0.1 25 -3.7 77 77 SW 14 22 29.65 1004 10 16.0934 N/A
12:56 pm 12:56 Clear 42 5.4 18 -7.8 38 38 Calm 29.6 1002 10 16.0934 N/A
2:58 pm 14:58 Sunny 31 -0.6 23 -5.2 71 71 SSW 12 19 29.6 1003 10 16.0934 N/A
4:58 pm 16:58 Sunny 38 3.2 27 -2.6 66 66 S 7 11 29.57 1001 10 16.0934 N/A
5:58 pm 17:58 Sunny 40 4.3 28 -2.3 63 63 SSE 8 13 29.55 1001 10 16.0934 N/A
6:58 pm 18:58 Sunny 41 4.9 28 -2.2 60 60 SSE 12 19 29.51 999 10 16.0934 N/A
7:58 pm 19:58 Sunny 42 5.5 26 -3.4 53 53 SSE 6 9 29.47 998 10 16.0934 N/A
8:58 pm 20:58 Mostly Cloudy 45 7.2 23 -5.2 41 41 SSE 6 9 29.44 997 10 16.0934 N/A
9:58 pm 21:58 Mostly Cloudy 40 4.5 27 -2.9 59 59 NNE 10 17 29.47 998 10 16.0934 N/A
10:58 pm 22:58 Mostly Cloudy 32 0 27 -2.9 81 81 NE 12 19 29.55 1001 10 16.0934 N/A
11:58 pm 23:58 Mostly Cloudy 33 0.4 27 -3 78 78 WNW 6 9 29.56 1001 10 16.0934 N/A

Powered by AerisWeather